createdAt,value
2017-10-28T00:00:47.809Z,9.20
2017-10-28T00:03:16.150Z,9.20
2017-10-28T00:05:43.687Z,9.20
2017-10-28T00:08:11.210Z,9.20
2017-10-28T00:10:38.766Z,9.20
2017-10-28T00:13:06.286Z,9.20
2017-10-28T00:15:34.601Z,9.30
2017-10-28T00:18:02.158Z,9.30
2017-10-28T00:20:29.699Z,9.30
2017-10-28T00:22:58.030Z,9.40
2017-10-28T00:25:25.541Z,9.40
2017-10-28T00:27:53.066Z,9.40
2017-10-28T00:30:26.296Z,9.50
2017-10-28T00:32:59.397Z,9.50
2017-10-28T00:35:32.583Z,9.50
2017-10-28T00:38:00.129Z,9.50
2017-10-28T00:40:28.448Z,9.50
2017-10-28T00:42:55.998Z,9.50
2017-10-28T00:45:23.570Z,9.40
2017-10-28T00:47:51.856Z,9.40
2017-10-28T00:50:20.145Z,9.50
2017-10-28T00:52:48.471Z,9.40
2017-10-28T00:55:15.993Z,9.40
2017-10-28T00:57:44.269Z,9.40
2017-10-28T01:00:11.815Z,9.40
2017-10-28T01:02:39.330Z,9.40
2017-10-28T01:05:07.661Z,9.40
2017-10-28T01:07:35.180Z,9.40
2017-10-28T01:10:02.743Z,9.40
2017-10-28T01:12:30.303Z,9.40
2017-10-28T01:14:57.822Z,9.40
2017-10-28T01:17:25.348Z,9.40
2017-10-28T01:19:52.891Z,9.40
2017-10-28T01:22:20.416Z,9.40
2017-10-28T01:24:48.758Z,9.40
2017-10-28T01:27:16.281Z,9.40
2017-10-28T01:29:43.822Z,9.40
2017-10-28T01:32:11.390Z,9.40
2017-10-28T01:34:38.914Z,9.40
2017-10-28T01:37:06.439Z,9.40
2017-10-28T01:39:33.998Z,9.30
2017-10-28T01:42:01.522Z,9.30
2017-10-28T01:44:29.810Z,9.30
2017-10-28T01:46:58.143Z,9.30
2017-10-28T01:49:25.679Z,9.30
2017-10-28T01:51:53.194Z,9.30
2017-10-28T01:54:20.814Z,9.40
2017-10-28T01:56:49.101Z,9.30
2017-10-28T01:59:16.638Z,9.40
2017-10-28T02:01:44.193Z,9.30
2017-10-28T02:04:11.741Z,9.30
2017-10-28T02:06:39.276Z,9.40
2017-10-28T02:09:06.835Z,9.40
2017-10-28T02:11:34.351Z,9.40
2017-10-28T02:14:02.002Z,9.40
2017-10-28T02:16:29.546Z,9.30
2017-10-28T02:18:57.066Z,9.40
2017-10-28T02:21:24.652Z,9.30
2017-10-28T02:23:52.203Z,9.30
2017-10-28T02:26:19.767Z,9.30
2017-10-28T02:28:48.055Z,9.30
2017-10-28T02:31:16.338Z,9.30
2017-10-28T02:33:44.694Z,9.30
2017-10-28T02:36:12.223Z,9.30
2017-10-28T02:38:39.767Z,9.40
2017-10-28T02:41:07.326Z,9.40
2017-10-28T02:43:34.849Z,9.40
2017-10-28T02:46:02.365Z,9.40
2017-10-28T02:48:29.931Z,9.40
2017-10-28T02:50:57.458Z,9.40
2017-10-28T02:53:24.996Z,9.50
2017-10-28T02:55:53.331Z,9.50
2017-10-28T02:58:20.850Z,9.50
2017-10-28T03:00:48.376Z,9.50
2017-10-28T03:03:16.035Z,9.50
2017-10-28T03:05:43.594Z,9.50
2017-10-28T03:08:11.885Z,9.50
2017-10-28T03:10:39.428Z,9.50
2017-10-28T03:13:07.772Z,9.50
2017-10-28T03:15:35.338Z,9.50
2017-10-28T03:18:02.861Z,9.50
2017-10-28T03:20:30.391Z,9.50
2017-10-28T03:22:57.957Z,9.50
2017-10-28T03:25:25.482Z,9.50
2017-10-28T03:27:53.790Z,9.40
2017-10-28T03:30:21.386Z,9.40
2017-10-28T03:32:48.914Z,9.40
2017-10-28T03:35:17.197Z,9.40
2017-10-28T03:37:44.777Z,9.30
2017-10-28T03:40:12.298Z,9.30
2017-10-28T03:42:39.832Z,9.40
2017-10-28T03:45:08.150Z,9.30
2017-10-28T03:47:35.694Z,9.30
2017-10-28T03:50:04.110Z,9.30
2017-10-28T03:52:31.629Z,9.30
2017-10-28T03:54:59.154Z,9.20
2017-10-28T03:57:26.710Z,9.20
2017-10-28T03:59:54.241Z,9.20
2017-10-28T04:02:21.779Z,9.10
2017-10-28T04:04:49.325Z,9.00
2017-10-28T04:07:16.845Z,9.00
2017-10-28T04:09:44.409Z,9.00
2017-10-28T04:12:12.696Z,9.00
2017-10-28T04:14:40.214Z,9.00
2017-10-28T04:17:08.530Z,9.00
2017-10-28T04:19:36.058Z,9.00
2017-10-28T04:22:03.630Z,8.90
2017-10-28T04:24:31.149Z,8.90
2017-10-28T04:26:58.685Z,8.80
2017-10-28T04:29:26.997Z,8.80
2017-10-28T04:31:54.632Z,8.80
2017-10-28T04:34:22.242Z,8.90
2017-10-28T04:36:49.773Z,8.80
2017-10-28T04:39:17.296Z,8.80
2017-10-28T04:41:44.860Z,8.80
2017-10-28T04:44:12.378Z,8.70
2017-10-28T04:46:39.894Z,8.80
2017-10-28T04:49:08.236Z,8.70
2017-10-28T04:51:35.753Z,8.70
2017-10-28T04:54:04.041Z,8.70
2017-10-28T04:56:32.374Z,8.60
2017-10-28T04:58:59.977Z,8.60
2017-10-28T05:01:27.500Z,8.60
2017-10-28T05:03:55.063Z,8.70
2017-10-28T05:06:22.635Z,8.70
2017-10-28T05:08:50.178Z,8.50
2017-10-28T05:11:17.717Z,8.50
2017-10-28T05:13:45.307Z,8.50
2017-10-28T05:16:12.839Z,8.50
2017-10-28T05:18:40.360Z,8.40
2017-10-28T05:21:07.952Z,8.40
2017-10-28T05:23:36.248Z,8.40
2017-10-28T05:26:03.823Z,8.40
2017-10-28T05:28:31.393Z,8.40
2017-10-28T05:30:58.930Z,8.40
2017-10-28T05:33:26.504Z,8.40
2017-10-28T05:35:54.033Z,8.40
2017-10-28T05:38:21.585Z,8.40
2017-10-28T05:40:49.120Z,8.40
2017-10-28T05:43:16.680Z,8.40
2017-10-28T05:45:44.202Z,8.40
2017-10-28T05:48:11.774Z,8.40
2017-10-28T05:50:39.364Z,8.50
2017-10-28T05:53:06.906Z,8.50
2017-10-28T05:55:35.246Z,8.60
2017-10-28T05:58:02.772Z,8.50
2017-10-28T06:00:30.289Z,8.60
2017-10-28T06:02:57.852Z,8.60
2017-10-28T06:05:25.480Z,8.50
2017-10-28T06:07:53.760Z,8.60
2017-10-28T06:10:22.098Z,8.60
2017-10-28T06:12:49.635Z,8.60
2017-10-28T06:15:17.945Z,8.60
2017-10-28T06:17:45.529Z,8.60
2017-10-28T06:20:13.072Z,8.60
2017-10-28T06:22:40.607Z,8.60
2017-10-28T06:25:08.179Z,8.60
2017-10-28T06:27:35.705Z,8.60
2017-10-28T06:30:03.272Z,8.70
2017-10-28T06:32:30.853Z,8.70
2017-10-28T06:34:58.387Z,8.70
2017-10-28T06:37:26.528Z,8.70
2017-10-28T06:39:54.055Z,8.80
2017-10-28T06:42:21.625Z,8.80
2017-10-28T06:44:49.918Z,8.80
2017-10-28T06:47:18.227Z,8.80
2017-10-28T06:49:45.787Z,8.80
2017-10-28T06:52:14.086Z,8.90
2017-10-28T06:54:41.680Z,8.90
2017-10-28T06:57:09.206Z,8.90
2017-10-28T06:59:37.665Z,8.90
2017-10-28T07:02:05.354Z,9.00
2017-10-28T07:04:33.644Z,9.10
2017-10-28T07:07:01.226Z,9.10
2017-10-28T07:09:29.707Z,9.20
2017-10-28T07:11:57.318Z,9.20
2017-10-28T07:14:24.878Z,9.20
2017-10-28T07:16:52.423Z,9.20
2017-10-28T07:19:23.610Z,9.20
2017-10-28T07:21:54.874Z,9.30
2017-10-28T07:24:23.418Z,9.30
2017-10-28T07:26:50.943Z,9.30
2017-10-28T07:29:18.481Z,9.30
2017-10-28T07:31:46.064Z,9.40
2017-10-28T07:34:14.692Z,9.40
2017-10-28T07:36:42.895Z,9.40
2017-10-28T07:39:11.190Z,9.40
2017-10-28T07:41:38.773Z,9.40
2017-10-28T07:44:06.314Z,9.40
2017-10-28T07:46:33.956Z,9.50
2017-10-28T07:49:01.527Z,9.40
2017-10-28T07:51:29.051Z,9.50
2017-10-28T07:53:56.636Z,9.50
2017-10-28T07:56:24.945Z,9.50
2017-10-28T07:58:52.512Z,9.50
2017-10-28T08:01:20.045Z,9.50
2017-10-28T08:03:53.211Z,9.40
2017-10-28T08:06:20.898Z,9.40
2017-10-28T08:08:48.427Z,9.40
2017-10-28T08:11:15.945Z,9.50
2017-10-28T08:13:44.301Z,9.60
2017-10-28T08:16:12.626Z,9.70
2017-10-28T08:18:40.195Z,9.60
2017-10-28T08:21:07.757Z,9.60
2017-10-28T08:23:35.369Z,9.50
2017-10-28T08:26:02.896Z,9.60
2017-10-28T08:28:31.240Z,9.60
2017-10-28T08:30:59.458Z,9.60
2017-10-28T08:33:26.981Z,9.70
2017-10-28T08:35:54.583Z,9.70
2017-10-28T08:38:22.114Z,9.80
2017-10-28T08:40:49.645Z,9.70
2017-10-28T08:43:17.277Z,9.70
2017-10-28T08:45:44.888Z,9.80
2017-10-28T08:48:12.430Z,9.80
2017-10-28T08:50:40.769Z,9.80
2017-10-28T08:53:08.295Z,9.80
2017-10-28T08:55:36.845Z,9.90
2017-10-28T08:58:04.383Z,9.90
2017-10-28T09:00:37.908Z,9.90
2017-10-28T09:03:05.446Z,9.90
2017-10-28T09:05:34.723Z,9.90
2017-10-28T09:08:03.691Z,9.90
2017-10-28T09:10:32.295Z,9.80
2017-10-28T09:12:59.878Z,9.80
2017-10-28T09:15:27.405Z,9.80
2017-10-28T09:17:59.397Z,9.80
2017-10-28T09:20:27.019Z,9.80
2017-10-28T09:22:54.554Z,9.80
2017-10-28T09:25:22.110Z,9.80
2017-10-28T09:27:50.416Z,10.10
2017-10-28T09:30:18.107Z,10.10
2017-10-28T09:32:47.867Z,10.20
2017-10-28T09:35:15.422Z,10.20
2017-10-28T09:37:43.927Z,10.20
2017-10-28T09:40:11.454Z,10.20
2017-10-28T09:42:39.026Z,10.30
2017-10-28T09:45:06.561Z,10.40
2017-10-28T09:47:34.095Z,10.40
2017-10-28T09:50:01.761Z,10.40
2017-10-28T09:52:32.201Z,10.40
2017-10-28T09:54:59.778Z,10.40
2017-10-28T09:57:27.386Z,10.40
2017-10-28T09:59:54.958Z,10.50
2017-10-28T10:02:23.275Z,10.50
2017-10-28T10:04:50.882Z,10.40
2017-10-28T10:07:19.398Z,10.50
2017-10-28T10:09:46.971Z,10.50
2017-10-28T10:12:14.498Z,10.60
2017-10-28T10:14:42.795Z,10.70
2017-10-28T10:17:10.362Z,10.60
2017-10-28T10:19:37.940Z,10.60
2017-10-28T10:22:05.473Z,10.60
2017-10-28T10:24:33.044Z,10.70
2017-10-28T10:27:00.625Z,10.70
2017-10-28T10:29:32.027Z,10.60
2017-10-28T10:31:59.576Z,10.60
2017-10-28T10:34:27.926Z,10.60
2017-10-28T10:36:58.204Z,10.60
2017-10-28T10:39:25.756Z,10.50
2017-10-28T10:41:53.369Z,10.50
2017-10-28T10:44:20.902Z,10.40
2017-10-28T10:46:49.212Z,10.30
2017-10-28T10:49:16.826Z,10.30
2017-10-28T10:51:45.109Z,10.30
2017-10-28T10:54:12.697Z,10.30
2017-10-28T10:56:40.402Z,10.30
2017-10-28T10:59:07.941Z,10.30
2017-10-28T11:01:36.705Z,10.40
2017-10-28T11:04:04.249Z,10.40
2017-10-28T11:06:31.770Z,10.40
2017-10-28T11:09:00.198Z,10.40
2017-10-28T11:11:28.561Z,10.50
2017-10-28T11:13:56.164Z,10.50
2017-10-28T11:16:24.539Z,10.50
2017-10-28T11:18:52.421Z,10.50
2017-10-28T11:21:19.989Z,10.50
2017-10-28T11:23:47.587Z,10.50
2017-10-28T11:26:15.118Z,10.50
2017-10-28T11:28:42.642Z,10.50
2017-10-28T11:31:10.215Z,10.50
2017-10-28T11:33:37.753Z,10.60
2017-10-28T11:36:06.074Z,10.50
2017-10-28T11:38:33.645Z,10.50
2017-10-28T11:41:01.232Z,10.50
2017-10-28T11:43:28.792Z,10.50
2017-10-28T11:45:56.381Z,10.50
2017-10-28T11:48:23.912Z,10.50
2017-10-28T11:50:51.445Z,10.40
2017-10-28T11:53:24.629Z,10.40
2017-10-28T11:55:52.176Z,10.50
2017-10-28T11:58:20.370Z,10.50
2017-10-28T12:00:47.908Z,10.50
2017-10-28T12:03:15.449Z,10.40
2017-10-28T12:05:43.010Z,10.40
2017-10-28T12:08:10.558Z,10.50
2017-10-28T12:10:38.120Z,10.50
2017-10-28T12:13:05.643Z,10.50
2017-10-28T12:15:33.230Z,10.60
2017-10-28T12:18:00.745Z,10.50
2017-10-28T12:20:28.282Z,10.50
2017-10-28T12:22:56.622Z,10.50
2017-10-28T12:25:24.914Z,10.50
2017-10-28T12:27:54.224Z,10.50
2017-10-28T12:30:22.562Z,10.50
2017-10-28T12:32:50.339Z,10.50
2017-10-28T12:35:18.002Z,10.50
2017-10-28T12:37:45.570Z,10.50
2017-10-28T12:40:13.137Z,10.50
2017-10-28T12:42:40.840Z,10.60
2017-10-28T12:45:08.377Z,10.70
2017-10-28T12:47:35.918Z,10.70
2017-10-28T12:50:03.495Z,10.70
2017-10-28T12:52:31.067Z,10.70
2017-10-28T12:54:59.048Z,10.80
2017-10-28T12:57:27.963Z,10.70
2017-10-28T12:59:56.339Z,10.70
2017-10-28T13:02:23.874Z,10.70
2017-10-28T13:04:55.338Z,10.80
2017-10-28T13:07:23.351Z,10.90
2017-10-28T13:09:50.962Z,10.90
2017-10-28T13:12:18.739Z,10.80
2017-10-28T13:15:00.775Z,10.80
2017-10-28T13:17:28.615Z,10.70
2017-10-28T13:19:56.330Z,10.80
2017-10-28T13:22:24.162Z,10.80
2017-10-28T13:24:51.747Z,10.70
2017-10-28T13:27:19.280Z,10.70
2017-10-28T13:29:49.241Z,10.80
2017-10-28T13:32:22.876Z,10.90
2017-10-28T13:34:55.601Z,10.90
2017-10-28T13:37:28.158Z,10.90
2017-10-28T13:40:01.004Z,10.90
2017-10-28T13:42:33.992Z,10.90
2017-10-28T13:45:09.490Z,11.00
2017-10-28T13:47:41.257Z,11.00
2017-10-28T13:50:13.167Z,10.80
2017-10-28T13:52:45.832Z,10.80
2017-10-28T13:55:19.693Z,10.90
2017-10-28T13:57:51.534Z,10.90
2017-10-28T14:00:24.194Z,10.90
2017-10-28T14:02:55.466Z,10.90
2017-10-28T14:05:25.675Z,10.90
2017-10-28T14:07:59.469Z,10.90
2017-10-28T14:10:30.084Z,11.00
2017-10-28T14:12:59.287Z,11.00
2017-10-28T14:15:30.077Z,10.90
2017-10-28T14:18:00.235Z,10.90
2017-10-28T14:20:30.959Z,10.90
2017-10-28T14:22:58.907Z,10.90
2017-10-28T14:25:27.774Z,10.90
2017-10-28T14:27:55.352Z,10.90
2017-10-28T14:30:22.949Z,10.80
2017-10-28T14:32:51.772Z,10.80
2017-10-28T14:35:20.307Z,10.90
2017-10-28T14:37:49.069Z,10.90
2017-10-28T14:40:16.647Z,10.90
2017-10-28T14:42:44.717Z,10.90
2017-10-28T14:45:12.352Z,10.90
2017-10-28T14:47:40.669Z,11.00
2017-10-28T14:50:12.741Z,11.00
2017-10-28T14:52:41.063Z,10.90
2017-10-28T14:55:08.653Z,11.00
2017-10-28T14:57:37.411Z,10.90
2017-10-28T15:00:06.340Z,10.90
2017-10-28T15:02:35.556Z,10.90
2017-10-28T15:05:05.967Z,10.90
2017-10-28T15:07:33.606Z,10.90
2017-10-28T15:10:01.183Z,11.00
2017-10-28T15:12:28.774Z,11.00
2017-10-28T15:14:58.770Z,11.00
2017-10-28T15:17:26.440Z,11.00
2017-10-28T15:19:55.114Z,11.00
2017-10-28T15:22:23.639Z,11.00
2017-10-28T15:24:51.354Z,11.00
2017-10-28T15:27:19.889Z,11.00
2017-10-28T15:29:51.515Z,11.00
2017-10-28T15:32:19.190Z,10.90
2017-10-28T15:34:46.765Z,11.00
2017-10-28T15:37:14.313Z,11.00
2017-10-28T15:39:42.039Z,11.00
2017-10-28T15:42:10.093Z,11.00
2017-10-28T15:44:38.450Z,11.00
2017-10-28T15:47:06.044Z,11.00
2017-10-28T15:49:34.362Z,11.00
2017-10-28T15:52:07.415Z,11.00
2017-10-28T15:54:34.989Z,11.00
2017-10-28T15:57:02.673Z,11.00
2017-10-28T15:59:32.305Z,11.10
2017-10-28T16:02:01.266Z,11.10
2017-10-28T16:04:28.843Z,11.10
2017-10-28T16:06:56.399Z,11.20
2017-10-28T16:09:24.756Z,11.20
2017-10-28T16:11:52.896Z,11.20
2017-10-28T16:14:21.178Z,11.20
2017-10-28T16:16:51.068Z,11.20
2017-10-28T16:19:18.620Z,11.10
2017-10-28T16:21:48.637Z,11.20
2017-10-28T16:24:22.521Z,11.20
2017-10-28T16:26:50.727Z,11.20
2017-10-28T16:29:21.934Z,11.20
2017-10-28T16:31:52.197Z,11.20
2017-10-28T16:34:22.029Z,11.10
2017-10-28T16:36:51.646Z,11.00
2017-10-28T16:39:23.059Z,10.80
2017-10-28T16:41:51.538Z,10.80
2017-10-28T16:44:19.517Z,10.70
2017-10-28T16:46:49.714Z,10.60
2017-10-28T16:49:20.620Z,10.50
2017-10-28T16:51:57.384Z,10.40
2017-10-28T16:54:29.625Z,10.40
2017-10-28T16:56:58.323Z,10.30
2017-10-28T16:59:30.598Z,10.30
2017-10-28T17:01:58.876Z,10.30
2017-10-28T17:04:29.894Z,10.30
2017-10-28T17:07:04.658Z,10.30
2017-10-28T17:09:41.144Z,10.30
2017-10-28T17:12:10.834Z,10.30
2017-10-28T17:14:39.067Z,10.30
2017-10-28T17:17:09.226Z,10.30
2017-10-28T17:19:37.322Z,10.30
2017-10-28T17:22:07.907Z,10.30
2017-10-28T17:24:38.959Z,10.30
2017-10-28T17:27:08.950Z,10.40
2017-10-28T17:29:36.982Z,10.30
2017-10-28T17:32:07.666Z,10.30
2017-10-28T17:34:38.610Z,10.30
2017-10-28T17:37:10.182Z,10.40
2017-10-28T17:39:37.949Z,10.30
2017-10-28T17:42:05.509Z,10.40
2017-10-28T17:44:33.047Z,10.50
2017-10-28T17:47:00.684Z,10.50
2017-10-28T17:49:28.242Z,10.60
2017-10-28T17:51:55.774Z,10.60
2017-10-28T17:54:25.385Z,10.70
2017-10-28T17:56:52.974Z,10.70
2017-10-28T17:59:20.509Z,10.70
2017-10-28T18:01:48.842Z,10.70
2017-10-28T18:04:16.369Z,10.70
2017-10-28T18:06:43.931Z,10.70
2017-10-28T18:09:11.517Z,10.70
2017-10-28T18:11:39.767Z,10.70
2017-10-28T18:14:08.225Z,10.80
2017-10-28T18:16:35.913Z,10.80
2017-10-28T18:19:03.458Z,10.80
2017-10-28T18:21:31.039Z,10.90
2017-10-28T18:23:58.650Z,10.90
2017-10-28T18:26:27.950Z,10.90
2017-10-28T18:28:55.516Z,10.90
2017-10-28T18:31:23.886Z,10.80
2017-10-28T18:33:51.433Z,10.80
2017-10-28T18:36:19.037Z,10.90
2017-10-28T18:38:49.188Z,10.90
2017-10-28T18:41:16.757Z,10.90
2017-10-28T18:43:44.311Z,10.90
2017-10-28T18:46:11.898Z,10.80
2017-10-28T18:48:41.127Z,10.90
2017-10-28T18:51:08.717Z,10.90
2017-10-28T18:53:36.307Z,10.90
2017-10-28T18:56:03.884Z,10.90
2017-10-28T18:58:31.464Z,10.90
2017-10-28T19:00:59.084Z,11.00
2017-10-28T19:03:26.666Z,11.00
2017-10-28T19:05:54.223Z,11.00
2017-10-28T19:08:21.791Z,11.00
2017-10-28T19:10:52.718Z,11.00
2017-10-28T19:13:20.525Z,11.10
2017-10-28T19:15:48.061Z,11.10
2017-10-28T19:18:15.697Z,11.10
2017-10-28T19:20:43.231Z,11.10
2017-10-28T19:23:11.648Z,11.10
2017-10-28T19:25:39.198Z,11.10
2017-10-28T19:28:06.730Z,11.20
2017-10-28T19:30:35.053Z,11.20
2017-10-28T19:33:02.598Z,11.20
2017-10-28T19:35:30.182Z,11.20
2017-10-28T19:37:59.058Z,11.20
2017-10-28T19:40:27.407Z,11.20
2017-10-28T19:42:58.635Z,11.20
2017-10-28T19:45:27.179Z,11.30
2017-10-28T19:47:54.745Z,11.30
2017-10-28T19:50:22.324Z,11.20
2017-10-28T19:52:49.861Z,11.30
2017-10-28T19:55:18.689Z,11.40
2017-10-28T19:57:46.265Z,11.40
2017-10-28T20:00:13.810Z,11.40
2017-10-28T20:02:42.359Z,11.40
2017-10-28T20:05:10.705Z,11.40
2017-10-28T20:07:38.242Z,11.40
2017-10-28T20:10:05.772Z,11.40
2017-10-28T20:12:33.337Z,11.40
2017-10-28T20:15:00.870Z,11.40
2017-10-28T20:17:28.453Z,11.40
2017-10-28T20:19:55.986Z,11.40
2017-10-28T20:22:24.305Z,11.40
2017-10-28T20:24:51.866Z,11.40
2017-10-28T20:27:19.396Z,11.40
2017-10-28T20:29:46.965Z,11.40
2017-10-28T20:32:14.491Z,11.40
2017-10-28T20:34:42.037Z,11.40
2017-10-28T20:37:09.596Z,11.40
2017-10-28T20:39:37.167Z,11.50
2017-10-28T20:42:04.693Z,11.50
2017-10-28T20:44:32.278Z,11.50
2017-10-28T20:46:59.805Z,11.50
2017-10-28T20:49:27.334Z,11.60
2017-10-28T20:51:55.664Z,11.60
2017-10-28T20:54:23.242Z,11.60
2017-10-28T20:56:50.783Z,11.60
2017-10-28T20:59:18.309Z,11.70
2017-10-28T21:01:45.865Z,11.70
2017-10-28T21:04:13.389Z,11.70
2017-10-28T21:06:41.723Z,11.70
2017-10-28T21:09:10.453Z,11.70
2017-10-28T21:11:38.036Z,11.70
2017-10-28T21:14:05.771Z,11.80
2017-10-28T21:16:33.297Z,11.80
2017-10-28T21:19:00.868Z,11.80
2017-10-28T21:21:28.645Z,11.80
2017-10-28T21:23:56.226Z,11.80
2017-10-28T21:26:23.820Z,11.80
2017-10-28T21:28:51.365Z,11.80
2017-10-28T21:31:18.948Z,11.90
2017-10-28T21:33:47.246Z,11.90
2017-10-28T21:36:15.606Z,11.90
2017-10-28T21:38:43.178Z,11.90
2017-10-28T21:41:10.720Z,11.90
2017-10-28T21:43:38.282Z,12.00
2017-10-28T21:46:05.810Z,12.00
2017-10-28T21:48:33.370Z,12.00
2017-10-28T21:51:00.902Z,12.00
2017-10-28T21:53:28.470Z,12.10
2017-10-28T21:55:56.139Z,12.10
2017-10-28T21:58:23.699Z,12.10
2017-10-28T22:00:51.230Z,12.10
2017-10-28T22:03:18.812Z,12.10
2017-10-28T22:05:47.150Z,12.20
2017-10-28T22:08:14.710Z,12.20
2017-10-28T22:10:42.299Z,12.20
2017-10-28T22:13:09.825Z,12.20
2017-10-28T22:15:37.364Z,12.30
2017-10-28T22:18:04.920Z,12.30
2017-10-28T22:20:32.457Z,12.30
2017-10-28T22:23:00.802Z,12.30
2017-10-28T22:25:28.342Z,12.30
2017-10-28T22:27:55.969Z,12.40
2017-10-28T22:30:23.540Z,12.40
2017-10-28T22:32:51.105Z,12.40
2017-10-28T22:35:18.664Z,12.40
2017-10-28T22:37:46.953Z,12.50
2017-10-28T22:40:14.533Z,12.50
2017-10-28T22:42:42.065Z,12.50
2017-10-28T22:45:09.590Z,12.60
2017-10-28T22:47:37.174Z,12.60
2017-10-28T22:50:05.462Z,12.60
2017-10-28T22:52:33.750Z,12.60
2017-10-28T22:55:01.309Z,12.60
2017-10-28T22:57:28.880Z,12.60
2017-10-28T22:59:56.403Z,12.60
2017-10-28T23:02:23.921Z,12.60
2017-10-28T23:04:51.490Z,12.60
2017-10-28T23:07:19.063Z,12.60
2017-10-28T23:09:46.586Z,12.60
2017-10-28T23:12:14.115Z,12.60
2017-10-28T23:14:41.675Z,12.70
2017-10-28T23:17:09.209Z,12.70
2017-10-28T23:19:36.773Z,12.70
2017-10-28T23:22:04.303Z,12.70
2017-10-28T23:24:31.865Z,12.70
2017-10-28T23:26:59.397Z,12.70
2017-10-28T23:29:26.984Z,12.70
2017-10-28T23:31:55.281Z,12.80
2017-10-28T23:34:23.571Z,12.80
2017-10-28T23:36:51.918Z,12.80
2017-10-28T23:39:19.451Z,12.80
2017-10-28T23:41:46.986Z,12.80
2017-10-28T23:44:14.557Z,12.80
2017-10-28T23:46:42.089Z,12.90
2017-10-28T23:49:09.650Z,12.90
2017-10-28T23:51:37.174Z,12.90
2017-10-28T23:54:04.734Z,13.00
2017-10-28T23:56:32.253Z,13.00
2017-10-28T23:58:59.814Z,13.00
